createdAt,value
2018-01-11T00:02:28.974Z,48.00
2018-01-11T00:04:58.461Z,47.27
2018-01-11T00:07:28.006Z,53.27
2018-01-11T00:09:57.395Z,48.97
2018-01-11T00:12:26.544Z,47.70
2018-01-11T00:14:56.198Z,46.50
2018-01-11T00:17:25.459Z,49.33
2018-01-11T00:19:54.642Z,47.77
2018-01-11T00:22:24.093Z,49.37
2018-01-11T00:24:53.470Z,47.40
2018-01-11T00:27:22.649Z,48.87
2018-01-11T00:29:51.779Z,49.43
2018-01-11T00:32:21.317Z,46.60
2018-01-11T00:34:50.493Z,50.73
2018-01-11T00:37:19.652Z,47.80
2018-01-11T00:39:48.786Z,50.07
2018-01-11T00:42:17.949Z,50.83
2018-01-11T00:44:47.082Z,48.60
2018-01-11T00:47:16.282Z,56.03
2018-01-11T00:49:45.428Z,50.20
2018-01-11T00:52:14.549Z,50.43
2018-01-11T00:54:43.683Z,47.40
2018-01-11T00:57:12.850Z,48.53
2018-01-11T00:59:42.014Z,49.33
2018-01-11T01:02:11.138Z,51.20
2018-01-11T01:04:40.315Z,52.07
2018-01-11T01:07:09.435Z,51.97
2018-01-11T01:09:38.550Z,49.60
2018-01-11T01:12:07.727Z,50.03
2018-01-11T01:14:36.898Z,49.30
2018-01-11T01:17:06.020Z,49.23
2018-01-11T01:19:35.186Z,51.13
2018-01-11T01:22:04.309Z,53.73
2018-01-11T01:24:33.486Z,50.70
2018-01-11T01:27:02.636Z,49.10
2018-01-11T01:29:31.758Z,53.33
2018-01-11T01:32:00.883Z,52.50
2018-01-11T01:34:30.062Z,52.73
2018-01-11T01:36:59.192Z,50.80
2018-01-11T01:39:28.325Z,51.57
2018-01-11T01:41:57.482Z,50.60
2018-01-11T01:44:26.606Z,53.20
2018-01-11T01:46:55.731Z,50.83
2018-01-11T01:49:24.922Z,49.53
2018-01-11T01:51:54.062Z,50.50
2018-01-11T01:54:23.186Z,54.47
2018-01-11T01:56:52.340Z,50.00
2018-01-11T01:59:21.472Z,50.90
2018-01-11T02:01:50.590Z,49.93
2018-01-11T02:04:19.746Z,55.60
2018-01-11T02:06:48.876Z,50.40
2018-01-11T02:09:18.001Z,51.13
2018-01-11T02:11:47.153Z,51.40
2018-01-11T02:14:16.292Z,52.70
2018-01-11T02:16:45.419Z,52.00
2018-01-11T02:19:14.572Z,50.40
2018-01-11T02:21:43.690Z,48.17
2018-01-11T02:24:12.823Z,51.30
2018-01-11T02:26:41.971Z,51.23
2018-01-11T02:29:11.105Z,51.87
2018-01-11T02:31:40.237Z,51.90
2018-01-11T02:34:09.443Z,45.67
2018-01-11T02:36:38.571Z,49.83
2018-01-11T02:39:07.707Z,50.80
2018-01-11T02:41:36.854Z,49.10
2018-01-11T02:44:05.984Z,49.20
2018-01-11T02:46:35.113Z,50.40
2018-01-11T02:49:04.699Z,53.00
2018-01-11T02:51:33.815Z,51.73
2018-01-11T02:54:02.945Z,51.87
2018-01-11T02:56:32.150Z,51.80
2018-01-11T02:59:01.280Z,50.53
2018-01-11T03:01:30.421Z,50.53
2018-01-11T03:03:59.575Z,51.13
2018-01-11T03:06:28.705Z,51.30
2018-01-11T03:08:57.829Z,51.40
2018-01-11T03:11:26.977Z,52.30
2018-01-11T03:13:56.103Z,50.97
2018-01-11T03:16:25.225Z,51.10
2018-01-11T03:18:54.364Z,50.33
2018-01-11T03:21:23.487Z,52.83
2018-01-11T03:23:52.611Z,51.03
2018-01-11T03:26:21.771Z,51.20
2018-01-11T03:28:50.905Z,52.00
2018-01-11T03:31:20.045Z,52.30
2018-01-11T03:33:49.218Z,52.60
2018-01-11T03:36:18.353Z,50.00
2018-01-11T03:38:47.491Z,54.00
2018-01-11T03:41:16.644Z,52.37
2018-01-11T03:43:45.766Z,52.70
2018-01-11T03:46:14.899Z,51.77
2018-01-11T03:48:44.047Z,54.00
2018-01-11T03:51:13.211Z,54.57
2018-01-11T03:53:42.338Z,54.97
2018-01-11T03:56:11.479Z,57.17
2018-01-11T03:58:40.629Z,54.33
2018-01-11T04:01:09.755Z,55.03
2018-01-11T04:03:38.915Z,52.37
2018-01-11T04:06:08.031Z,51.83
2018-01-11T04:08:37.163Z,55.67
2018-01-11T04:11:06.321Z,55.87
2018-01-11T04:13:35.459Z,55.97
2018-01-11T04:16:04.615Z,52.00
2018-01-11T04:18:33.774Z,53.40
2018-01-11T04:21:02.906Z,54.73
2018-01-11T04:23:32.087Z,55.77
2018-01-11T04:26:01.226Z,54.30
2018-01-11T04:28:30.405Z,51.47
2018-01-11T04:30:59.536Z,53.57
2018-01-11T04:33:28.689Z,52.13
2018-01-11T04:35:57.812Z,54.40
2018-01-11T04:38:26.936Z,51.20
2018-01-11T04:40:56.088Z,54.67
2018-01-11T04:43:25.214Z,54.63
2018-01-11T04:45:54.352Z,56.20
2018-01-11T04:48:23.496Z,51.93
2018-01-11T04:50:52.620Z,51.17
2018-01-11T04:53:21.748Z,52.17
2018-01-11T04:55:50.894Z,50.87
2018-01-11T04:58:20.042Z,52.53
2018-01-11T05:00:52.987Z,50.67
2018-01-11T05:03:22.126Z,53.50
2018-01-11T05:05:51.258Z,54.90
2018-01-11T05:08:20.416Z,52.13
2018-01-11T05:10:49.534Z,52.67
2018-01-11T05:13:18.667Z,52.77
2018-01-11T05:15:47.806Z,49.27
2018-01-11T05:18:16.930Z,49.40
2018-01-11T05:20:46.055Z,49.57
2018-01-11T05:23:15.209Z,48.90
2018-01-11T05:25:44.337Z,52.57
2018-01-11T05:28:13.476Z,49.67
2018-01-11T05:30:42.627Z,48.67
2018-01-11T05:33:11.747Z,51.33
2018-01-11T05:35:40.897Z,49.20
2018-01-11T05:38:10.039Z,55.33
2018-01-11T05:40:39.171Z,46.30
2018-01-11T05:43:08.331Z,44.40
2018-01-11T05:45:37.480Z,47.50
2018-01-11T05:48:06.616Z,48.70
2018-01-11T05:50:35.739Z,44.70
2018-01-11T05:53:04.887Z,45.83
2018-01-11T05:55:34.023Z,45.33
2018-01-11T05:58:03.181Z,45.60
2018-01-11T06:00:32.327Z,43.83
2018-01-11T06:03:01.446Z,43.30
2018-01-11T06:05:30.576Z,42.57
2018-01-11T06:07:59.732Z,40.10
2018-01-11T06:10:28.866Z,41.27
2018-01-11T06:12:58.051Z,43.50
2018-01-11T06:15:27.197Z,43.77
2018-01-11T06:17:56.314Z,41.30
2018-01-11T06:20:26.639Z,41.20
2018-01-11T06:22:55.786Z,42.27
2018-01-11T06:25:24.929Z,43.67
2018-01-11T06:27:54.052Z,43.00
2018-01-11T06:30:23.214Z,44.03
2018-01-11T06:32:52.340Z,39.17
2018-01-11T06:35:21.481Z,36.43
2018-01-11T06:37:50.634Z,36.77
2018-01-11T06:40:20.720Z,38.73
2018-01-11T06:42:49.870Z,40.20
2018-01-11T06:45:18.995Z,36.93
2018-01-11T06:47:48.133Z,34.43
2018-01-11T06:50:17.315Z,37.47
2018-01-11T06:52:46.468Z,37.17
2018-01-11T06:55:15.678Z,37.77
2018-01-11T06:57:44.823Z,34.70
2018-01-11T07:00:13.954Z,35.70
2018-01-11T07:02:43.098Z,39.00
2018-01-11T07:05:12.249Z,40.57
2018-01-11T07:07:41.370Z,38.83
2018-01-11T07:10:10.499Z,39.40
2018-01-11T07:12:39.654Z,37.70
2018-01-11T07:15:08.795Z,39.53
2018-01-11T07:17:37.965Z,35.93
2018-01-11T07:20:07.153Z,40.37
2018-01-11T07:22:36.292Z,35.60
2018-01-11T07:25:05.435Z,36.00
2018-01-11T07:27:34.585Z,37.47
2018-01-11T07:30:03.762Z,37.50
2018-01-11T07:32:32.885Z,36.53
2018-01-11T07:35:02.031Z,36.87
2018-01-11T07:37:31.820Z,35.10
2018-01-11T07:40:00.955Z,36.87
2018-01-11T07:42:30.171Z,36.50
2018-01-11T07:44:59.291Z,34.50
2018-01-11T07:47:28.425Z,33.27
2018-01-11T07:49:57.578Z,31.13
2018-01-11T07:52:26.725Z,34.47
2018-01-11T07:54:55.865Z,32.07
2018-01-11T07:57:25.040Z,33.30
2018-01-11T07:59:54.176Z,30.63
2018-01-11T08:02:23.303Z,32.13
2018-01-11T08:04:52.447Z,33.30
2018-01-11T08:07:21.571Z,35.27
2018-01-11T08:09:50.695Z,34.07
2018-01-11T08:12:19.847Z,35.90
2018-01-11T08:14:48.978Z,36.00
2018-01-11T08:17:18.098Z,31.30
2018-01-11T08:19:47.243Z,31.20
2018-01-11T08:22:16.375Z,33.20
2018-01-11T08:24:45.520Z,32.00
2018-01-11T08:27:14.678Z,34.80
2018-01-11T08:29:43.815Z,33.83
2018-01-11T08:32:12.956Z,35.10
2018-01-11T08:34:42.102Z,35.87
2018-01-11T08:37:11.223Z,35.93
2018-01-11T08:39:40.356Z,34.20
2018-01-11T08:42:09.516Z,31.20
2018-01-11T08:44:38.641Z,31.33
2018-01-11T08:47:07.770Z,28.90
2018-01-11T08:49:37.000Z,35.17
2018-01-11T08:52:06.157Z,34.50
2018-01-11T08:54:35.295Z,36.57
2018-01-11T08:57:04.437Z,34.77
2018-01-11T08:59:33.643Z,32.00
2018-01-11T09:02:02.767Z,33.13
2018-01-11T09:04:31.918Z,29.27
2018-01-11T09:07:01.060Z,29.00
2018-01-11T09:09:30.187Z,29.70
2018-01-11T09:11:59.346Z,27.23
2018-01-11T09:14:28.483Z,29.50
2018-01-11T09:16:57.611Z,31.97
2018-01-11T09:19:26.771Z,32.40
2018-01-11T09:21:55.896Z,30.90
2018-01-11T09:24:25.084Z,33.53
2018-01-11T09:26:54.306Z,31.00
2018-01-11T09:29:23.471Z,33.80
2018-01-11T09:31:52.594Z,30.90
2018-01-11T09:34:21.743Z,31.67
2018-01-11T09:36:50.880Z,34.37
2018-01-11T09:39:20.007Z,35.90
2018-01-11T09:41:49.182Z,36.10
2018-01-11T09:44:18.299Z,36.00
2018-01-11T09:46:47.438Z,35.40
2018-01-11T09:49:17.499Z,36.40
2018-01-11T09:51:46.624Z,35.03
2018-01-11T09:54:15.751Z,33.57
2018-01-11T09:56:44.902Z,35.73
2018-01-11T09:59:14.031Z,37.57
2018-01-11T10:01:43.159Z,33.07
2018-01-11T10:04:12.327Z,33.40
2018-01-11T10:06:41.455Z,29.80
2018-01-11T10:09:10.579Z,32.00
2018-01-11T10:11:39.733Z,32.83
2018-01-11T10:14:08.857Z,27.43
2018-01-11T10:16:37.988Z,29.10
2018-01-11T10:19:07.133Z,31.47
2018-01-11T10:21:36.329Z,32.83
2018-01-11T10:24:05.458Z,37.50
2018-01-11T10:26:34.620Z,32.83
2018-01-11T10:29:03.742Z,32.43
2018-01-11T10:31:32.877Z,30.67
2018-01-11T10:34:02.036Z,30.63
2018-01-11T10:36:31.202Z,30.53
2018-01-11T10:39:00.315Z,29.83
2018-01-11T10:41:29.475Z,29.83
2018-01-11T10:43:58.612Z,30.47
2018-01-11T10:46:27.739Z,30.40
2018-01-11T10:48:56.923Z,30.30
2018-01-11T10:51:26.059Z,28.97
2018-01-11T10:53:55.245Z,29.50
2018-01-11T10:56:24.399Z,27.83
2018-01-11T10:58:53.537Z,25.60
2018-01-11T11:01:28.377Z,29.47
2018-01-11T11:03:57.547Z,26.73
2018-01-11T11:06:26.670Z,33.27
2018-01-11T11:08:55.841Z,30.10
2018-01-11T11:11:25.039Z,26.43
2018-01-11T11:13:54.172Z,25.00
2018-01-11T11:16:23.329Z,29.70
2018-01-11T11:18:52.465Z,26.93
2018-01-11T11:21:21.601Z,24.20
2018-01-11T11:23:50.842Z,22.90
2018-01-11T11:26:19.979Z,21.53
2018-01-11T11:28:49.112Z,21.40
2018-01-11T11:31:18.357Z,20.73
2018-01-11T11:33:47.481Z,24.60
2018-01-11T11:36:16.659Z,22.23
2018-01-11T11:38:45.807Z,22.20
2018-01-11T11:41:14.970Z,22.10
2018-01-11T11:43:44.095Z,21.37
2018-01-11T11:46:13.295Z,22.30
2018-01-11T11:48:42.447Z,22.03
2018-01-11T11:51:11.591Z,23.90
2018-01-11T11:53:40.739Z,23.70
2018-01-11T11:56:09.875Z,23.33
2018-01-11T11:58:38.995Z,24.23
2018-01-11T12:01:08.164Z,22.20
2018-01-11T12:03:37.414Z,25.93
2018-01-11T12:06:06.547Z,19.20
2018-01-11T12:08:35.707Z,23.83
2018-01-11T12:11:04.924Z,23.33
2018-01-11T12:13:34.955Z,22.50
2018-01-11T12:16:04.220Z,22.87
2018-01-11T12:18:33.344Z,22.10
2018-01-11T12:21:02.479Z,20.50
2018-01-11T12:23:31.761Z,20.93
2018-01-11T12:26:00.945Z,22.70
2018-01-11T12:28:30.252Z,23.07
2018-01-11T12:30:59.416Z,23.87
2018-01-11T12:33:28.559Z,22.17
2018-01-11T12:35:56.101Z,24.43
2018-01-11T12:38:24.453Z,24.80
2018-01-11T12:40:52.764Z,25.80
2018-01-11T12:43:21.388Z,30.27
2018-01-11T12:45:48.919Z,21.87
2018-01-11T12:48:17.596Z,67.77
2018-01-11T12:50:45.076Z,29.10
2018-01-11T12:53:12.576Z,31.57
2018-01-11T12:55:40.878Z,23.70
2018-01-11T12:58:09.711Z,30.50
2018-01-11T13:00:37.219Z,22.30
2018-01-11T13:03:04.704Z,22.80
2018-01-11T13:05:32.225Z,18.73
2018-01-11T13:08:00.499Z,23.60
2018-01-11T13:10:28.780Z,20.10
2018-01-11T13:12:57.023Z,18.47
2018-01-11T13:15:24.581Z,18.40
2018-01-11T13:17:52.056Z,23.30
2018-01-11T13:20:19.572Z,20.40
2018-01-11T13:22:47.096Z,23.10
2018-01-11T13:25:15.371Z,18.43
2018-01-11T13:27:43.632Z,18.17
2018-01-11T13:30:11.135Z,26.30
2018-01-11T13:32:38.615Z,19.53
2018-01-11T13:35:06.098Z,19.77
2018-01-11T13:37:33.606Z,18.33
2018-01-11T13:40:01.096Z,21.90
2018-01-11T13:42:28.591Z,17.83
2018-01-11T13:44:56.896Z,20.60
2018-01-11T13:47:24.390Z,13.67
2018-01-11T13:49:51.938Z,15.93
2018-01-11T13:52:19.488Z,241.23
2018-01-11T13:54:52.993Z,170.70
2018-01-11T13:57:20.995Z,73.50
2018-01-11T13:59:50.978Z,22.57
2018-01-11T14:02:19.263Z,20.27
2018-01-11T14:04:50.101Z,13.63
2018-01-11T14:07:17.845Z,13.13
2018-01-11T14:09:45.328Z,13.70
2018-01-11T14:12:13.918Z,15.27
2018-01-11T14:14:41.407Z,14.13
2018-01-11T14:17:10.085Z,11.23
2018-01-11T14:19:38.421Z,11.30
2018-01-11T14:22:05.910Z,12.40
2018-01-11T14:24:33.385Z,13.57
2018-01-11T14:29:28.716Z,11.77
2018-01-11T14:31:56.192Z,11.13
2018-01-11T14:34:24.481Z,13.90
2018-01-11T14:36:52.744Z,17.30
2018-01-11T14:39:21.728Z,15.93
2018-01-11T14:41:49.209Z,19.87
2018-01-11T14:44:17.472Z,15.47
2018-01-11T14:46:45.740Z,15.83
2018-01-11T14:49:13.217Z,17.33
2018-01-11T14:51:41.492Z,15.77
2018-01-11T14:54:09.808Z,16.57
2018-01-11T14:56:37.300Z,16.27
2018-01-11T14:59:04.787Z,17.83
2018-01-11T15:01:32.298Z,20.60
2018-01-11T15:03:59.768Z,19.13
2018-01-11T15:06:27.276Z,20.20
2018-01-11T15:08:55.545Z,19.90
2018-01-11T15:11:23.812Z,20.77
2018-01-11T15:13:52.080Z,21.37
2018-01-11T15:16:19.548Z,21.23
2018-01-11T15:18:47.017Z,22.60
2018-01-11T15:21:15.325Z,25.63
2018-01-11T15:23:42.820Z,22.27
2018-01-11T15:26:10.356Z,25.43
2018-01-11T15:28:37.852Z,32.00
2018-01-11T15:31:05.321Z,24.27
2018-01-11T15:33:33.564Z,24.00
2018-01-11T15:36:01.058Z,25.33
2018-01-11T15:38:28.543Z,24.00
2018-01-11T15:40:56.080Z,23.57
2018-01-11T15:43:24.337Z,27.23
2018-01-11T15:45:51.816Z,26.53
2018-01-11T15:48:20.058Z,28.40
2018-01-11T15:50:47.608Z,28.60
2018-01-11T15:53:15.106Z,28.10
2018-01-11T15:55:43.364Z,27.27
2018-01-11T15:58:10.884Z,27.30
2018-01-11T16:00:38.352Z,29.07
2018-01-11T16:03:05.831Z,28.23
2018-01-11T16:05:33.336Z,28.43
2018-01-11T16:08:01.575Z,29.90
2018-01-11T16:10:29.052Z,29.93
2018-01-11T16:12:56.557Z,31.13
2018-01-11T16:15:24.053Z,33.37
2018-01-11T16:17:51.525Z,30.60
2018-01-11T16:20:19.036Z,31.70
2018-01-11T16:22:46.557Z,29.90
2018-01-11T16:25:14.829Z,26.30
2018-01-11T16:27:42.352Z,26.33
2018-01-11T16:30:09.824Z,26.33
2018-01-11T16:32:37.312Z,32.77
2018-01-11T16:35:05.576Z,27.27
2018-01-11T16:37:33.057Z,27.30
2018-01-11T16:40:01.312Z,28.90
2018-01-11T16:42:28.905Z,28.43
2018-01-11T16:44:57.145Z,29.77
2018-01-11T16:47:24.633Z,27.27
2018-01-11T16:49:52.895Z,30.13
2018-01-11T16:52:20.379Z,35.37
2018-01-11T16:54:47.886Z,31.87
2018-01-11T16:57:15.385Z,31.30
2018-01-11T16:59:43.629Z,29.83
2018-01-11T17:02:11.117Z,113.17
2018-01-11T17:04:40.184Z,41.57
2018-01-11T17:07:07.660Z,34.50
2018-01-11T17:09:35.145Z,33.47
2018-01-11T17:12:02.684Z,35.70
2018-01-11T17:14:30.952Z,37.60
2018-01-11T17:16:58.441Z,36.00
2018-01-11T17:19:26.726Z,32.67
2018-01-11T17:21:54.192Z,50.03
2018-01-11T17:24:21.664Z,38.37
2018-01-11T17:26:50.072Z,36.80
2018-01-11T17:29:17.549Z,40.50
2018-01-11T17:31:45.020Z,36.87
2018-01-11T17:34:13.364Z,38.97
2018-01-11T17:36:40.912Z,34.37
2018-01-11T17:39:08.343Z,35.70
2018-01-11T17:41:36.606Z,33.53
2018-01-11T17:44:04.852Z,37.13
2018-01-11T17:46:32.325Z,35.07
2018-01-11T17:49:00.604Z,43.83
2018-01-11T17:51:28.852Z,68.40
2018-01-11T17:53:56.374Z,38.90
2018-01-11T17:56:23.861Z,41.83
2018-01-11T17:58:51.380Z,40.90
2018-01-11T18:01:18.871Z,44.43
2018-01-11T18:03:46.440Z,38.43
2018-01-11T18:06:13.914Z,39.27
2018-01-11T18:08:41.488Z,37.20
2018-01-11T18:11:08.998Z,50.00
2018-01-11T18:13:36.501Z,109.93
2018-01-11T18:16:04.756Z,84.20
2018-01-11T18:18:32.255Z,38.50
2018-01-11T18:21:00.506Z,35.50
2018-01-11T18:23:27.988Z,37.40
2018-01-11T18:25:56.260Z,44.53
2018-01-11T18:28:23.759Z,47.23
2018-01-11T18:30:51.316Z,40.80
2018-01-11T18:33:18.873Z,39.50
2018-01-11T18:35:46.358Z,41.47
2018-01-11T18:38:13.849Z,40.80
2018-01-11T18:40:41.364Z,43.33
2018-01-11T18:43:08.924Z,43.50
2018-01-11T18:45:36.424Z,41.83
2018-01-11T18:48:04.038Z,45.43
2018-01-11T18:50:31.518Z,40.30
2018-01-11T18:52:59.013Z,40.40
2018-01-11T18:55:26.518Z,40.70
2018-01-11T18:57:54.055Z,42.80
2018-01-11T19:00:22.325Z,41.73
2018-01-11T19:02:50.619Z,43.60
2018-01-11T19:05:18.099Z,39.73
2018-01-11T19:07:45.584Z,40.93
2018-01-11T19:10:13.160Z,42.67
2018-01-11T19:12:40.642Z,43.43
2018-01-11T19:15:11.722Z,43.70
2018-01-11T19:17:39.454Z,40.83
2018-01-11T19:20:06.981Z,64.17
2018-01-11T19:22:34.559Z,43.83
2018-01-11T19:25:02.821Z,43.47
2018-01-11T19:27:30.316Z,39.53
2018-01-11T19:29:58.605Z,42.50
2018-01-11T19:32:26.109Z,42.23
2018-01-11T19:34:53.586Z,39.50
2018-01-11T19:37:21.068Z,43.80
2018-01-11T19:39:49.616Z,41.60
2018-01-11T19:42:17.132Z,45.23
2018-01-11T19:44:44.662Z,43.60
2018-01-11T19:47:12.940Z,46.80
2018-01-11T19:49:41.182Z,42.20
2018-01-11T19:52:08.666Z,40.47
2018-01-11T19:54:36.153Z,45.80
2018-01-11T19:57:03.621Z,45.83
2018-01-11T19:59:31.131Z,42.90
2018-01-11T20:01:59.418Z,47.70
2018-01-11T20:04:26.896Z,67.03
2018-01-11T20:06:55.188Z,58.77
2018-01-11T20:09:22.719Z,49.70
2018-01-11T20:11:51.007Z,56.07
2018-01-11T20:14:19.257Z,61.23
2018-01-11T20:16:46.768Z,46.60
2018-01-11T20:19:14.242Z,59.73
2018-01-11T20:21:41.761Z,44.27
2018-01-11T20:24:10.020Z,44.13
2018-01-11T20:26:37.508Z,43.53
2018-01-11T20:29:04.994Z,45.33
2018-01-11T20:31:32.488Z,40.90
2018-01-11T20:34:00.015Z,52.83
2018-01-11T20:36:27.495Z,47.60
2018-01-11T20:38:55.158Z,42.37
2018-01-11T20:41:22.628Z,41.10
2018-01-11T20:43:50.112Z,44.90
2018-01-11T20:46:18.390Z,45.17
2018-01-11T20:48:47.653Z,43.10
2018-01-11T20:51:15.245Z,42.67
2018-01-11T20:53:43.512Z,40.03
2018-01-11T20:56:11.758Z,42.67
2018-01-11T20:58:39.245Z,42.33
2018-01-11T21:01:06.736Z,41.00
2018-01-11T21:03:35.000Z,40.53
2018-01-11T21:06:03.251Z,44.50
2018-01-11T21:08:30.768Z,43.53
2018-01-11T21:10:58.260Z,43.83
2018-01-11T21:13:25.761Z,45.03
2018-01-11T21:15:54.026Z,59.67
2018-01-11T21:18:21.548Z,50.60
2018-01-11T21:20:49.033Z,47.40
2018-01-11T21:23:16.535Z,44.47
2018-01-11T21:25:44.037Z,43.93
2018-01-11T21:28:11.512Z,44.23
2018-01-11T21:30:39.813Z,42.87
2018-01-11T21:33:08.053Z,41.70
2018-01-11T21:35:35.560Z,43.67
2018-01-11T21:38:03.084Z,40.70
2018-01-11T21:40:30.558Z,43.60
2018-01-11T21:42:58.071Z,44.63
2018-01-11T21:45:25.570Z,40.67
2018-01-11T21:47:53.050Z,41.40
2018-01-11T21:50:21.291Z,45.37
2018-01-11T21:52:48.793Z,41.10
2018-01-11T21:55:16.296Z,40.03
2018-01-11T21:57:43.780Z,41.30
2018-01-11T22:00:12.077Z,39.90
2018-01-11T22:02:40.320Z,40.00
2018-01-11T22:05:07.907Z,39.43
2018-01-11T22:07:35.382Z,39.00
2018-01-11T22:10:03.701Z,39.53
2018-01-11T22:12:31.272Z,40.70
2018-01-11T22:14:58.776Z,42.40
2018-01-11T22:17:27.022Z,43.40
2018-01-11T22:19:54.502Z,44.00
2018-01-11T22:22:22.765Z,38.20
2018-01-11T22:24:50.316Z,41.53
2018-01-11T22:27:17.796Z,42.03
2018-01-11T22:29:46.079Z,40.33
2018-01-11T22:32:14.329Z,40.83
2018-01-11T22:34:41.896Z,40.77
2018-01-11T22:37:09.397Z,42.17
2018-01-11T22:39:36.886Z,41.90
2018-01-11T22:42:04.500Z,43.93
2018-01-11T22:44:32.061Z,41.83
2018-01-11T22:47:00.303Z,38.87
2018-01-11T22:49:27.815Z,41.67
2018-01-11T22:51:55.315Z,39.07
2018-01-11T22:54:22.829Z,44.43
2018-01-11T22:56:50.306Z,42.13
2018-01-11T22:59:17.810Z,42.77
2018-01-11T23:01:58.005Z,42.23
2018-01-11T23:04:25.504Z,41.97
2018-01-11T23:06:52.980Z,42.33
2018-01-11T23:09:20.461Z,45.67
2018-01-11T23:11:48.732Z,42.70
2018-01-11T23:14:16.980Z,48.70
2018-01-11T23:16:44.450Z,44.27
2018-01-11T23:19:11.943Z,44.53
2018-01-11T23:21:40.203Z,42.23
2018-01-11T23:24:08.448Z,46.00
2018-01-11T23:26:35.941Z,41.83
2018-01-11T23:29:04.175Z,48.00
2018-01-11T23:31:31.658Z,54.73
2018-01-11T23:33:59.160Z,44.80
2018-01-11T23:36:26.631Z,44.80
2018-01-11T23:38:54.116Z,48.10
2018-01-11T23:41:21.713Z,51.80
2018-01-11T23:43:49.141Z,50.27
2018-01-11T23:46:16.620Z,149.90
2018-01-11T23:48:44.123Z,63.07
2018-01-11T23:51:11.631Z,49.20
2018-01-11T23:53:39.111Z,49.47
2018-01-11T23:56:07.378Z,59.13
2018-01-11T23:58:34.907Z,80.80
